Schneifelwetter: Wetterstation Hallschlag, 537 m . NN
Wetterdaten: Mittwoch, 05.09.2012
Datum Zeit Temp. A. Feuchte A. Luftdruck Regen Wind Richtung Richtung Sonnenschein T Regen Taupunkt Windchill
05.09.2012 00:14 9,6 C 88 % 1020 hPa 0,0 l/m 0,0 km/h (0 Bft) N-NO 15 0 min 0 min 7,7 C 9,6 C
05.09.2012 00:29 9,6 C 88 % 1020 hPa 0,0 l/m 0,0 km/h (0 Bft) N-NO 15 0 min 0 min 7,7 C 9,6 C
05.09.2012 00:44 9,5 C 88 % 1020 hPa 0,0 l/m 0,0 km/h (0 Bft) N-NO 15 0 min 0 min 7,6 C 9,5 C
05.09.2012 00:59 9,2 C 88 % 1021 hPa 0,0 l/m 0,0 km/h (0 Bft) N-NO 15 0 min 0 min 7,3 C 9,2 C
05.09.2012 01:14 9,1 C 88 % 1020 hPa 0,0 l/m 0,0 km/h (0 Bft) N-NO 15 0 min 0 min 7,2 C 9,1 C
05.09.2012 01:29 8,9 C 89 % 1020 hPa 0,0 l/m 0,0 km/h (0 Bft) N-NO 15 0 min 0 min 7,2 C 8,9 C
05.09.2012 01:44 8,6 C 89 % 1020 hPa 0,0 l/m 0,0 km/h (0 Bft) N-NO 15 0 min 0 min 6,9 C 8,6 C
05.09.2012 01:59 8,5 C 90 % 1020 hPa 0,0 l/m 0,0 km/h (0 Bft) N-NO 15 0 min 0 min 7,0 C 8,5 C
05.09.2012 02:14 8,2 C 89 % 1020 hPa 0,0 l/m 0,0 km/h (0 Bft) N-NO 15 0 min 0 min 6,5 C 8,2 C
05.09.2012 02:29 8,2 C 90 % 1020 hPa 0,0 l/m 0,0 km/h (0 Bft) N-NO 15 0 min 0 min 6,7 C 8,2 C
05.09.2012 02:44 8,8 C 92 % 1020 hPa 0,0 l/m 0,0 km/h (0 Bft) N-NO 15 0 min 0 min 7,6 C 8,8 C
05.09.2012 02:59 8,9 C 92 % 1020 hPa 0,0 l/m 0,0 km/h (0 Bft) N-NO 15 0 min 0 min 7,7 C 8,9 C
05.09.2012 03:14 8,9 C 91 % 1020 hPa 0,0 l/m 0,0 km/h (0 Bft) N-NO 15 0 min 0 min 7,5 C 8,9 C
05.09.2012 03:29 9,0 C 92 % 1020 hPa 0,0 l/m 0,0 km/h (0 Bft) N-NO 15 0 min 0 min 7,8 C 9,0 C
05.09.2012 03:44 9,2 C 92 % 1020 hPa 0,0 l/m 0,0 km/h (0 Bft) N-NO 15 0 min 0 min 8,0 C 9,2 C
05.09.2012 03:59 9,2 C 92 % 1020 hPa 0,0 l/m 0,0 km/h (0 Bft) N-NO 15 0 min 0 min 8,0 C 9,2 C
05.09.2012 04:14 9,3 C 92 % 1020 hPa 0,0 l/m 0,0 km/h (0 Bft) N-NO 15 0 min 0 min 8,1 C 9,3 C
05.09.2012 04:29 9,5 C 92 % 1020 hPa 0,0 l/m 0,0 km/h (0 Bft) N-NO 15 0 min 0 min 8,3 C 9,5 C
05.09.2012 04:44 9,5 C 92 % 1020 hPa 0,0 l/m 0,0 km/h (0 Bft) N-NO 15 0 min 0 min 8,3 C 9,5 C
05.09.2012 04:59 9,4 C 93 % 1020 hPa 0,0 l/m 0,0 km/h (0 Bft) N-NO 15 0 min 0 min 8,3 C 9,4 C
05.09.2012 05:14 9,3 C 93 % 1019 hPa 0,0 l/m 0,0 km/h (0 Bft) N-NO 15 0 min 0 min 8,2 C 9,3 C
05.09.2012 05:29 9,1 C 93 % 1019 hPa 0,0 l/m 0,0 km/h (0 Bft) N-NO 15 0 min 0 min 8,0 C 9,1 C
05.09.2012 05:44 8,8 C 93 % 1020 hPa 0,0 l/m 0,0 km/h (0 Bft) N-NO 15 0 min 0 min 7,7 C 8,8 C
05.09.2012 05:59 9,1 C 94 % 1019 hPa 0,0 l/m 0,0 km/h (0 Bft) N-NO 15 0 min 0 min 8,2 C 9,1 C
05.09.2012 06:14 9,0 C 94 % 1019 hPa 0,0 l/m 0,0 km/h (0 Bft) N-NO 15 0 min 0 min 8,1 C 9,0 C
05.09.2012 06:29 9,0 C 94 % 1019 hPa 0,0 l/m 0,0 km/h (0 Bft) N-NO 15 0 min 0 min 8,1 C 9,0 C
05.09.2012 06:44 9,3 C 94 % 1019 hPa 0,0 l/m 0,0 km/h (0 Bft) N-NO 15 0 min 0 min 8,4 C 9,3 C
05.09.2012 06:59 9,7 C 94 % 1020 hPa 0,0 l/m 0,0 km/h (0 Bft) N-NO 15 0 min 0 min 8,8 C 9,7 C
05.09.2012 07:14 10,2 C 94 % 1020 hPa 0,0 l/m 0,0 km/h (0 Bft) N-NO 20 15 min 0 min 9,3 C 10,2 C
05.09.2012 07:29 11,3 C 95 % 1020 hPa 0,0 l/m 0,0 km/h (0 Bft) N-NO 20 15 min 0 min 10,5 C 11,3 C
05.09.2012 07:44 11,7 C 95 % 1020 hPa 0,0 l/m 0,0 km/h (0 Bft) NO 35 15 min 0 min 10,9 C 11,7 C
05.09.2012 07:59 12,4 C 96 % 1020 hPa 0,0 l/m 0,0 km/h (0 Bft) NO 35 15 min 0 min 11,8 C 12,4 C
05.09.2012 08:14 12,9 C 96 % 1020 hPa 0,0 l/m 16,7 km/h (3 Bft) NO45 40 15 min 0 min 12,3 C 8,1 C
05.09.2012 08:29 13,0 C 96 % 1020 hPa 0,0 l/m 8,9 km/h (2 Bft) NO45 40 15 min 0 min 12,4 C 11,5 C
05.09.2012 08:44 13,2 C 96 % 1020 hPa 0,0 l/m 13,7 km/h (3 Bft) NO22.5 35 15 min 0 min 12,6 C 9,5 C
05.09.2012 08:59 13,4 C 96 % 1020 hPa 0,0 l/m 13,0 km/h (3 Bft) NO45 40 15 min 0 min 12,8 C 10,0 C
05.09.2012 09:14 13,5 C 96 % 1020 hPa 0,0 l/m 11,8 km/h (2 Bft) NO22.5 50 15 min 0 min 12,9 C 10,6 C
05.09.2012 09:29 13,5 C 96 % 1020 hPa 0,0 l/m 11,0 km/h (2 Bft) N-NO 25 15 min 0 min 12,9 C 11,0 C
05.09.2012 09:44 13,6 C 95 % 1021 hPa 0,0 l/m 14,4 km/h (3 Bft) N-NO 25 15 min 0 min 12,8 C 9,7 C
05.09.2012 09:59 13,7 C 95 % 1021 hPa 0,0 l/m 15,5 km/h (3 Bft) N-NO22.5 25 15 min 0 min 12,9 C 9,4 C
05.09.2012 10:14 13,9 C 94 % 1020 hPa 0,0 l/m 14,4 km/h (3 Bft) N-NO22.5 15 15 min 0 min 12,9 C 10,1 C
05.09.2012 10:29 14,1 C 93 % 1020 hPa 0,0 l/m 13,5 km/h (3 Bft) N45 10 15 min 0 min 13,0 C 10,6 C
05.09.2012 10:44 14,1 C 93 % 1020 hPa 0,0 l/m 15,0 km/h (3 Bft) N-NO45 20 15 min 0 min 13,0 C 10,1 C
05.09.2012 10:59 14,1 C 93 % 1021 hPa 0,0 l/m 9,4 km/h (2 Bft) N-NO22.5 15 15 min 0 min 13,0 C 12,4 C
05.09.2012 11:14 13,4 C 92 % 1021 hPa 0,0 l/m 22,6 km/h (4 Bft) N-NO45 25 15 min 0 min 12,1 C 7,0 C
05.09.2012 11:29 12,8 C 91 % 1021 hPa 0,0 l/m 18,7 km/h (3 Bft) N45 10 15 min 0 min 11,4 C 7,3 C
05.09.2012 11:44 12,7 C 91 % 1021 hPa 0,0 l/m 20,3 km/h (4 Bft) N-NO22.5 20 15 min 0 min 11,3 C 6,7 C
05.09.2012 11:59 13,1 C 89 % 1021 hPa 0,0 l/m 16,1 km/h (3 Bft) N-NO67.5 15 15 min 0 min 11,3 C 8,5 C
05.09.2012 12:14 13,2 C 89 % 1021 hPa 0,0 l/m 18,3 km/h (3 Bft) N-NO22.5 15 15 min 0 min 11,4 C 7,9 C
05.09.2012 12:28 13,4 C 90 % 1021 hPa 0,0 l/m 16,0 km/h (3 Bft) N22.5 5 14 min 0 min 11,8 C 8,9 C
05.09.2012 12:44 13,9 C 89 % 1021 hPa 0,0 l/m 19,5 km/h (3 Bft) N-NO22.5 30 16 min 0 min 12,1 C 8,5 C
05.09.2012 12:59 13,9 C 89 % 1021 hPa 0,0 l/m 20,3 km/h (4 Bft) N-NO67.5 25 15 min 0 min 12,1 C 8,2 C
05.09.2012 13:14 13,9 C 89 % 1021 hPa 0,0 l/m 17,0 km/h (3 Bft) N67.5 5 15 min 0 min 12,1 C 9,2 C
05.09.2012 13:29 14,9 C 88 % 1021 hPa 0,0 l/m 15,2 km/h (3 Bft) N-NO22.5 25 15 min 0 min 12,9 C 11,0 C
05.09.2012 13:44 16,2 C 84 % 1021 hPa 0,0 l/m 5,4 km/h (1 Bft) NO22.5 40 15 min 0 min 13,5 C 16,2 C
05.09.2012 13:58 16,6 C 80 % 1021 hPa 0,0 l/m 11,3 km/h (2 Bft) N22.5 5 14 min 0 min 13,1 C 14,4 C
05.09.2012 14:14 17,0 C 75 % 1021 hPa 0,0 l/m 15,9 km/h (3 Bft) N-NO45 25 16 min 0 min 12,5 C 13,4 C
05.09.2012 14:29 17,3 C 73 % 1021 hPa 0,0 l/m 18,8 km/h (3 Bft) NO67.5 50 15 min 0 min 12,4 C 13,0 C
05.09.2012 14:44 16,9 C 72 % 1021 hPa 0,0 l/m 19,9 km/h (4 Bft) N-NO22.5 30 15 min 0 min 11,8 C 12,2 C
05.09.2012 14:59 17,2 C 70 % 1021 hPa 0,0 l/m 22,1 km/h (4 Bft) N45 10 15 min 0 min 11,7 C 12,1 C
05.09.2012 15:14 17,2 C 66 % 1021 hPa 0,0 l/m 18,9 km/h (3 Bft) N-NO22.5 25 15 min 0 min 10,8 C 12,8 C
05.09.2012 15:28 17,4 C 66 % 1021 hPa 0,0 l/m 18,4 km/h (3 Bft) N-NO22.5 25 14 min 0 min 11,0 C 13,2 C
05.09.2012 15:44 17,2 C 67 % 1021 hPa 0,0 l/m 20,5 km/h (4 Bft) N-NO45 20 16 min 0 min 11,0 C 12,5 C
05.09.2012 15:59 17,4 C 65 % 1021 hPa 0,0 l/m 16,7 km/h (3 Bft) N-NO22.5 20 15 min 0 min 10,8 C 13,6 C
05.09.2012 16:14 17,3 C 65 % 1021 hPa 0,0 l/m 18,5 km/h (3 Bft) N67.5 5 15 min 0 min 10,7 C 13,1 C
05.09.2012 16:29 17,2 C 63 % 1021 hPa 0,0 l/m 23,6 km/h (4 Bft) N45 360 15 min 0 min 10,1 C 11,8 C
05.09.2012 16:44 17,5 C 64 % 1021 hPa 0,0 l/m 30,8 km/h (5 Bft) N67.5 360 15 min 0 min 10,6 C 11,1 C
05.09.2012 16:58 17,4 C 63 % 1021 hPa 0,0 l/m 21,0 km/h (4 Bft) N67.5 5 14 min 0 min 10,3 C 12,6 C
05.09.2012 17:14 17,0 C 63 % 1021 hPa 0,0 l/m 27,8 km/h (4 Bft) N-NO22.5 15 16 min 0 min 9,9 C 10,8 C
05.09.2012 17:29 15,8 C 65 % 1021 hPa 0,0 l/m 24,8 km/h (4 Bft) N22.5 10 15 min 0 min 9,2 C 9,7 C
05.09.2012 17:44 16,2 C 64 % 1021 hPa 0,0 l/m 28,0 km/h (4 Bft) N45 355 15 min 0 min 9,4 C 9,7 C
05.09.2012 17:59 16,1 C 64 % 1021 hPa 0,0 l/m 26,9 km/h (4 Bft) NO45 35 15 min 0 min 9,3 C 9,7 C
05.09.2012 18:14 15,6 C 64 % 1021 hPa 0,0 l/m 25,4 km/h (4 Bft) NO67.5 35 15 min 0 min 8,8 C 9,3 C
05.09.2012 18:28 15,3 C 66 % 1021 hPa 0,0 l/m 25,3 km/h (4 Bft) NO45 40 14 min 0 min 9,0 C 9,0 C
05.09.2012 18:44 15,2 C 66 % 1021 hPa 0,0 l/m 31,7 km/h (5 Bft) N-NO45 15 16 min 0 min 8,9 C 7,7 C
05.09.2012 18:59 15,0 C 67 % 1021 hPa 0,0 l/m 30,3 km/h (5 Bft) N-NO45 25 15 min 0 min 8,9 C 7,6 C
05.09.2012 19:14 14,4 C 67 % 1022 hPa 0,0 l/m 19,5 km/h (3 Bft) NO67.5 35 15 min 0 min 8,4 C 9,1 C
05.09.2012 19:29 14,0 C 68 % 1022 hPa 0,0 l/m 22,1 km/h (4 Bft) N-NW45 340 15 min 0 min 8,2 C 7,9 C
05.09.2012 19:44 13,2 C 69 % 1022 hPa 0,0 l/m 16,9 km/h (3 Bft) N-NO45 15 15 min 0 min 7,6 C 8,4 C
05.09.2012 19:58 12,9 C 71 % 1022 hPa 0,0 l/m 13,1 km/h (3 Bft) N67.5 360 14 min 0 min 7,8 C 9,4 C
05.09.2012 20:14 12,6 C 72 % 1022 hPa 0,0 l/m 9,7 km/h (2 Bft) N22.5 360 0 min 0 min 7,7 C 10,6 C
05.09.2012 20:29 12,2 C 73 % 1022 hPa 0,0 l/m 7,4 km/h (2 Bft) N22.5 360 0 min 0 min 7,5 C 11,5 C
05.09.2012 20:44 11,3 C 74 % 1022 hPa 0,0 l/m 7,4 km/h (2 Bft) N-NW45 345 0 min 0 min 6,8 C 10,6 C
05.09.2012 20:59 10,6 C 75 % 1022 hPa 0,0 l/m 0,0 km/h (0 Bft) N 350 0 min 0 min 6,4 C 10,6 C
05.09.2012 21:14 10,1 C 77 % 1022 hPa 0,0 l/m 1,2 km/h (1 Bft) N 350 0 min 0 min 6,3 C 10,1 C
05.09.2012 21:28 9,6 C 78 % 1022 hPa 0,0 l/m 0,0 km/h (0 Bft) N 350 0 min 0 min 6,0 C 9,6 C
05.09.2012 21:44 9,0 C 78 % 1022 hPa 0,0 l/m 0,0 km/h (0 Bft) N-NW 345 0 min 0 min 5,4 C 9,0 C
05.09.2012 21:59 8,3 C 80 % 1022 hPa 0,0 l/m 0,0 km/h (0 Bft) N 350 0 min 0 min 5,1 C 8,3 C
05.09.2012 22:14 7,6 C 81 % 1023 hPa 0,0 l/m 0,0 km/h (0 Bft) N 350 0 min 0 min 4,6 C 7,6 C
05.09.2012 22:29 7,0 C 82 % 1023 hPa 0,0 l/m 0,0 km/h (0 Bft) N-NW 345 0 min 0 min 4,1 C 7,0 C
05.09.2012 22:44 6,6 C 84 % 1023 hPa 0,0 l/m 0,0 km/h (0 Bft) N-NW 345 0 min 0 min 4,1 C 6,6 C
05.09.2012 22:58 6,2 C 84 % 1023 hPa 0,0 l/m 0,0 km/h (0 Bft) N-NW 345 0 min 0 min 3,7 C 6,2 C
05.09.2012 23:14 6,4 C 87 % 1023 hPa 0,0 l/m 0,0 km/h (0 Bft) N-NW 345 0 min 0 min 4,4 C 6,4 C
05.09.2012 23:29 6,8 C 87 % 1023 hPa 0,0 l/m 0,0 km/h (0 Bft) N 350 0 min 0 min 4,8 C 6,8 C
05.09.2012 23:44 7,2 C 87 % 1023 hPa 0,0 l/m 0,0 km/h (0 Bft) N-NW 345 0 min 0 min 5,2 C 7,2 C
05.09.2012 23:53 7,6 C 87 % 1023 hPa 0,0 l/m 0,0 km/h (0 Bft) N-NW 345 0 min 0 min 5,6 C 7,6 C
_ Min-Zeit 22:58 16:29 05:14 - 00:14 - - - - 22:58 22:58
Minimum _ 6,2 C 63 % 1019 hPa - 0,0 km/h (0 Bft) - - - - 3,7 C 6,2 C
_ Max-Zeit 16:44 07:59 22:14 00:14 18:44 - - 12:44 00:14 13:44 13:44
Maximum _ 17,5 C 96 % 1023 hPa 0,0 l/m 31,7 km/h
N-NO (5 Bft)
- - 16 min 0 min 13,5 C 16,2 C
Durchschnitt _ 12,1 C 84 % 1021 hPa #0,0 l/m 9,7 km/h (2 Bft) N-NO - #12:59 h #0 min. 9,2 C 9,7 C